This is the latest recevied weather packets stored in our database for station/object N2ZVN. If no packets are shown the sender has not sent any weather packets the latest 10 day(s).
| Time | Temp. | Humidity | Pressure | Rain* | Wind** | Luminosity | Snow |
|---|---|---|---|---|---|---|---|
| 1777923691 | 23.33° C | 35% | 1004 hPa | 0 mm | - | 540 W/m² | - |
| 1777923387 | 23.33° C | 33% | 1004.1 hPa | 0 mm | - | 492 W/m² | - |
| 1777923086 | 22.22° C | 36% | 1004.1 hPa | 0 mm | - | 552 W/m² | - |
| 1777922783 | 22.22° C | 36% | 1004.3 hPa | 0 mm | - | 666 W/m² | - |
| 1777922481 | 22.78° C | 34% | 1004.4 hPa | 0 mm | - | 287 W/m² | - |
| 1777922180 | 22.22° C | 36% | 1004.3 hPa | 0 mm | - | 339 W/m² | - |
| 1777921875 | 21.67° C | 37% | 1004.5 hPa | 0 mm | - | 515 W/m² | - |
| 1777921572 | 22.22° C | 35% | 1004.5 hPa | 0 mm | - | 343 W/m² | - |
| 1777921268 | 22.22° C | 37% | 1004.6 hPa | 0 mm | - | 350 W/m² | - |
| 1777920965 | 22.78° C | 35% | 1004.3 hPa | 0 mm | - | 473 W/m² | - |
| 1777920661 | 22.22° C | 37% | 1004.6 hPa | 0 mm | - | 653 W/m² | - |
| 1777920357 | 21.67° C | 40% | 1004.8 hPa | 0 mm | - | 692 W/m² | - |
| 1777920052 | 21.67° C | 38% | 1004.9 hPa | 0 mm | - | 496 W/m² | - |
| 1777919750 | 21.67° C | 37% | 1005 hPa | 0 mm | - | 566 W/m² | - |
| 1777919448 | 21.67° C | 37% | 1004.8 hPa | 0 mm | - | 184 W/m² | - |
| 1777919144 | 21.67° C | 41% | 1004.9 hPa | 0 mm | - | 354 W/m² | - |
| 1777918842 | 21.67° C | 38% | 1004.8 hPa | 0 mm | - | 610 W/m² | - |
| 1777918539 | 21.67° C | 38% | 1005.2 hPa | 0 mm | - | 410 W/m² | - |
| 1777918237 | 21.11° C | 39% | 1005 hPa | 0 mm | - | 636 W/m² | - |
| 1777917936 | 21.11° C | 39% | 1005.1 hPa | 0 mm | - | 525 W/m² | - |
| 1777917634 | 21.11° C | 42% | 1005.2 hPa | 0 mm | - | 422 W/m² | - |
| 1777917331 | 21.11° C | 40% | 1005.3 hPa | 0 mm | - | 339 W/m² | - |
| 1777917028 | 21.11° C | 40% | 1005.4 hPa | 0 mm | - | 660 W/m² | - |
| 1777916726 | 21.11° C | 41% | 1005.5 hPa | 0 mm | - | 574 W/m² | - |
| 1777916422 | 21.11° C | 39% | 1005.4 hPa | 0 mm | - | 450 W/m² | - |
* Rain latest hour (hover to see other rain measurements)
** Current wind speed in m/s (hover to see current wind gust speed)